sensor_id;sensor_type;location;lat;lon;timestamp;pressure;altitude;pressure_sealevel;temperature;humidity
45793;BME280;31495;42.740;22.908;2022-08-04T00:01:08;93324.84;;;16.73;64.54
45793;BME280;31495;42.740;22.908;2022-08-04T00:02:24;93328.59;;;16.60;64.86
45793;BME280;31495;42.740;22.908;2022-08-04T00:03:28;93318.75;;;16.45;65.24
45793;BME280;31495;42.740;22.908;2022-08-04T00:04:52;93303.72;;;16.35;65.25
45793;BME280;31495;42.740;22.908;2022-08-04T00:06:03;93294.78;;;16.31;65.42
45793;BME280;31495;42.740;22.908;2022-08-04T00:08:45;93330.38;;;16.38;65.69
45793;BME280;31495;42.740;22.908;2022-08-04T00:10:03;93322.09;;;16.24;65.81
45793;BME280;31495;42.740;22.908;2022-08-04T00:11:04;93323.84;;;16.18;66.19
45793;BME280;31495;42.740;22.908;2022-08-04T00:12:06;93320.44;;;16.17;66.65
45793;BME280;31495;42.740;22.908;2022-08-04T00:13:07;93300.91;;;16.03;66.46
45793;BME280;31495;42.740;22.908;2022-08-04T00:14:10;93329.63;;;16.20;66.65
45793;BME280;31495;42.740;22.908;2022-08-04T00:15:14;93331.75;;;16.23;66.36
45793;BME280;31495;42.740;22.908;2022-08-04T00:16:14;93291.28;;;16.04;66.28
45793;BME280;31495;42.740;22.908;2022-08-04T00:17:19;93325.50;;;16.24;66.03
45793;BME280;31495;42.740;22.908;2022-08-04T00:18:25;93327.09;;;16.25;66.23
45793;BME280;31495;42.740;22.908;2022-08-04T00:19:34;93308.91;;;16.13;66.34
45793;BME280;31495;42.740;22.908;2022-08-04T00:20:38;93323.78;;;16.30;65.99
45793;BME280;31495;42.740;22.908;2022-08-04T00:21:46;93281.63;;;16.04;66.05
45793;BME280;31495;42.740;22.908;2022-08-04T00:22:47;93303.69;;;16.13;65.92
45793;BME280;31495;42.740;22.908;2022-08-04T00:23:48;93325.56;;;16.29;65.84
45793;BME280;31495;42.740;22.908;2022-08-04T00:24:48;93309.84;;;16.24;65.63
45793;BME280;31495;42.740;22.908;2022-08-04T00:25:48;93328.91;;;16.25;65.63
45793;BME280;31495;42.740;22.908;2022-08-04T00:26:47;93331.19;;;16.21;65.61
45793;BME280;31495;42.740;22.908;2022-08-04T00:27:50;93300.78;;;15.93;65.74
45793;BME280;31495;42.740;22.908;2022-08-04T00:28:50;93307.19;;;15.85;65.95
45793;BME280;31495;42.740;22.908;2022-08-04T00:29:50;93286.91;;;15.75;66.20
45793;BME280;31495;42.740;22.908;2022-08-04T00:30:50;93320.53;;;15.89;66.62
45793;BME280;31495;42.740;22.908;2022-08-04T00:31:49;93317.31;;;15.82;66.87
45793;BME280;31495;42.740;22.908;2022-08-04T00:32:50;93305.09;;;15.70;66.67
45793;BME280;31495;42.740;22.908;2022-08-04T00:33:49;93312.78;;;15.77;66.79
45793;BME280;31495;42.740;22.908;2022-08-04T00:34:49;93315.16;;;15.78;66.67
45793;BME280;31495;42.740;22.908;2022-08-04T00:35:49;93268.81;;;15.52;66.81
45793;BME280;31495;42.740;22.908;2022-08-04T00:36:50;93325.19;;;15.87;67.00
45793;BME280;31495;42.740;22.908;2022-08-04T00:37:50;93329.41;;;15.88;67.03
45793;BME280;31495;42.740;22.908;2022-08-04T00:38:51;93307.00;;;15.75;67.13
45793;BME280;31495;42.740;22.908;2022-08-04T00:39:52;93319.19;;;15.86;66.93
45793;BME280;31495;42.740;22.908;2022-08-04T00:41:06;93322.06;;;15.85;66.77
45793;BME280;31495;42.740;22.908;2022-08-04T00:43:16;93279.63;;;15.60;67.02
45793;BME280;31495;42.740;22.908;2022-08-04T00:44:38;93325.03;;;15.93;66.90
45793;BME280;31495;42.740;22.908;2022-08-04T00:51:05;93334.38;;;15.89;66.53
45793;BME280;31495;42.740;22.908;2022-08-04T00:52:32;93335.88;;;15.85;66.74
45793;BME280;31495;42.740;22.908;2022-08-04T00:55:03;93306.19;;;15.57;66.64
45793;BME280;31495;42.740;22.908;2022-08-04T00:59:22;93336.34;;;15.82;66.56
45793;BME280;31495;42.740;22.908;2022-08-04T01:00:40;93336.03;;;15.78;66.71
45793;BME280;31495;42.740;22.908;2022-08-04T01:01:59;93337.09;;;15.77;66.37
45793;BME280;31495;42.740;22.908;2022-08-04T01:03:13;93307.78;;;15.58;66.63
45793;BME280;31495;42.740;22.908;2022-08-04T01:05:51;93339.56;;;15.72;66.40
45793;BME280;31495;42.740;22.908;2022-08-04T01:10:22;93333.38;;;15.61;66.51
45793;BME280;31495;42.740;22.908;2022-08-04T01:14:56;93340.44;;;15.61;66.47
45793;BME280;31495;42.740;22.908;2022-08-04T01:16:05;93340.16;;;15.62;66.36
45793;BME280;31495;42.740;22.908;2022-08-04T01:18:21;93335.59;;;15.53;67.11
45793;BME280;31495;42.740;22.908;2022-08-04T01:22:38;93347.13;;;15.57;66.92
45793;BME280;31495;42.740;22.908;2022-08-04T01:28:06;93340.00;;;15.52;67.55
45793;BME280;31495;42.740;22.908;2022-08-04T01:29:15;93328.25;;;15.50;67.66
45793;BME280;31495;42.740;22.908;2022-08-04T01:30:15;93330.63;;;15.51;67.43
45793;BME280;31495;42.740;22.908;2022-08-04T01:31:29;93328.72;;;15.47;67.37
45793;BME280;31495;42.740;22.908;2022-08-04T01:32:36;93338.22;;;15.53;67.41
45793;BME280;31495;42.740;22.908;2022-08-04T01:33:36;93337.72;;;15.56;67.13
45793;BME280;31495;42.740;22.908;2022-08-04T01:34:46;93333.69;;;15.48;67.18
45793;BME280;31495;42.740;22.908;2022-08-04T01:35:50;93340.38;;;15.44;67.59
45793;BME280;31495;42.740;22.908;2022-08-04T01:38:38;93337.16;;;15.37;67.98
45793;BME280;31495;42.740;22.908;2022-08-04T01:39:48;93314.44;;;15.20;68.04
45793;BME280;31495;42.740;22.908;2022-08-04T01:40:54;93346.66;;;15.43;68.18
45793;BME280;31495;42.740;22.908;2022-08-04T01:41:55;93348.53;;;15.48;67.90
45793;BME280;31495;42.740;22.908;2022-08-04T01:42:57;93344.13;;;15.48;67.44
45793;BME280;31495;42.740;22.908;2022-08-04T01:43:59;93340.31;;;15.39;67.56
45793;BME280;31495;42.740;22.908;2022-08-04T01:45:11;93344.06;;;15.31;67.82
45793;BME280;31495;42.740;22.908;2022-08-04T01:46:16;93313.69;;;15.08;67.97
45793;BME280;31495;42.740;22.908;2022-08-04T01:47:16;93315.75;;;15.06;68.29
45793;BME280;31495;42.740;22.908;2022-08-04T01:48:23;93336.75;;;15.16;68.10
45793;BME280;31495;42.740;22.908;2022-08-04T01:49:28;93321.31;;;14.98;68.36
45793;BME280;31495;42.740;22.908;2022-08-04T01:50:33;93344.06;;;15.02;68.47
45793;BME280;31495;42.740;22.908;2022-08-04T01:51:38;93313.00;;;14.84;68.97
45793;BME280;31495;42.740;22.908;2022-08-04T01:52:40;93338.63;;;15.04;68.96
45793;BME280;31495;42.740;22.908;2022-08-04T01:53:41;93332.97;;;14.95;68.97
45793;BME280;31495;42.740;22.908;2022-08-04T01:54:42;93312.50;;;14.87;68.79
45793;BME280;31495;42.740;22.908;2022-08-04T01:55:42;93338.63;;;15.04;68.63
45793;BME280;31495;42.740;22.908;2022-08-04T01:56:42;93343.03;;;15.03;68.67
45793;BME280;31495;42.740;22.908;2022-08-04T01:58:43;93342.13;;;15.10;68.45
45793;BME280;31495;42.740;22.908;2022-08-04T01:59:44;93328.22;;;15.04;68.42
45793;BME280;31495;42.740;22.908;2022-08-04T02:00:54;93290.25;;;14.79;68.51
45793;BME280;31495;42.740;22.908;2022-08-04T02:01:54;93314.41;;;14.92;68.63
45793;BME280;31495;42.740;22.908;2022-08-04T02:02:54;93337.69;;;15.10;68.72
45793;BME280;31495;42.740;22.908;2022-08-04T02:03:54;93336.44;;;15.13;68.52
45793;BME280;31495;42.740;22.908;2022-08-04T02:04:53;93338.03;;;15.14;67.95
45793;BME280;31495;42.740;22.908;2022-08-04T02:06:03;93332.47;;;15.10;67.66
45793;BME280;31495;42.740;22.908;2022-08-04T02:08:32;93310.97;;;14.74;68.21
45793;BME280;31495;42.740;22.908;2022-08-04T02:11:48;93322.22;;;14.63;69.11
45793;BME280;31495;42.740;22.908;2022-08-04T02:16:41;93339.63;;;14.74;69.18
45793;BME280;31495;42.740;22.908;2022-08-04T02:21:28;93306.34;;;14.41;69.27
45793;BME280;31495;42.740;22.908;2022-08-04T02:22:32;93299.00;;;14.38;69.03
45793;BME280;31495;42.740;22.908;2022-08-04T02:23:38;93338.63;;;14.63;69.14
45793;BME280;31495;42.740;22.908;2022-08-04T02:24:45;93341.00;;;14.65;68.88
45793;BME280;31495;42.740;22.908;2022-08-04T02:25:46;93338.94;;;14.67;69.00
45793;BME280;31495;42.740;22.908;2022-08-04T02:26:48;93313.59;;;14.50;69.06
45793;BME280;31495;42.740;22.908;2022-08-04T02:30:04;93335.88;;;14.70;68.88
45793;BME280;31495;42.740;22.908;2022-08-04T02:31:17;93337.25;;;14.73;68.99
45793;BME280;31495;42.740;22.908;2022-08-04T02:32:26;93329.09;;;14.69;68.80
45793;BME280;31495;42.740;22.908;2022-08-04T02:33:33;93326.72;;;14.67;68.63
45793;BME280;31495;42.740;22.908;2022-08-04T02:34:43;93324.81;;;14.63;68.83
45793;BME280;31495;42.740;22.908;2022-08-04T02:35:50;93309.28;;;14.44;69.12
45793;BME280;31495;42.740;22.908;2022-08-04T02:36:53;93341.31;;;14.57;69.51
45793;BME280;31495;42.740;22.908;2022-08-04T02:39:33;93297.31;;;14.20;69.87
45793;BME280;31495;42.740;22.908;2022-08-04T02:40:34;93276.28;;;14.09;69.95
45793;BME280;31495;42.740;22.908;2022-08-04T02:41:35;93314.06;;;14.36;69.75
45793;BME280;31495;42.740;22.908;2022-08-04T02:42:36;93319.03;;;14.37;69.51
45793;BME280;31495;42.740;22.908;2022-08-04T02:43:37;93331.47;;;14.47;69.56
45793;BME280;31495;42.740;22.908;2022-08-04T02:44:38;93330.47;;;14.48;69.39
45793;BME280;31495;42.740;22.908;2022-08-04T02:45:40;93340.19;;;14.52;69.33
45793;BME280;31495;42.740;22.908;2022-08-04T02:46:41;93312.00;;;14.38;69.43
45793;BME280;31495;42.740;22.908;2022-08-04T02:47:42;93313.38;;;14.40;69.53
45793;BME280;31495;42.740;22.908;2022-08-04T02:48:45;93319.47;;;14.46;69.49
45793;BME280;31495;42.740;22.908;2022-08-04T02:49:46;93298.56;;;14.29;69.57
45793;BME280;31495;42.740;22.908;2022-08-04T02:50:46;93308.97;;;14.41;69.72
45793;BME280;31495;42.740;22.908;2022-08-04T02:51:52;93311.09;;;14.44;69.44
45793;BME280;31495;42.740;22.908;2022-08-04T02:52:53;93333.88;;;14.60;69.28
45793;BME280;31495;42.740;22.908;2022-08-04T02:53:59;93335.34;;;14.68;69.19
45793;BME280;31495;42.740;22.908;2022-08-04T02:54:59;93331.47;;;14.70;68.71
45793;BME280;31495;42.740;22.908;2022-08-04T02:56:00;93324.69;;;14.58;68.60
45793;BME280;31495;42.740;22.908;2022-08-04T02:57:01;93311.34;;;14.42;68.73
45793;BME280;31495;42.740;22.908;2022-08-04T02:58:02;93334.63;;;14.49;69.03
45793;BME280;31495;42.740;22.908;2022-08-04T02:59:11;93297.00;;;14.16;69.15
45793;BME280;31495;42.740;22.908;2022-08-04T03:00:12;93319.16;;;14.30;69.63
45793;BME280;31495;42.740;22.908;2022-08-04T03:01:12;93332.94;;;14.43;69.51
45793;BME280;31495;42.740;22.908;2022-08-04T03:02:13;93326.84;;;14.37;69.43
45793;BME280;31495;42.740;22.908;2022-08-04T03:03:23;93337.69;;;14.46;69.37
45793;BME280;31495;42.740;22.908;2022-08-04T03:04:56;93345.72;;;14.44;69.25
45793;BME280;31495;42.740;22.908;2022-08-04T03:11:25;93330.13;;;14.44;69.57
45793;BME280;31495;42.740;22.908;2022-08-04T03:23:33;93317.47;;;14.24;69.95
45793;BME280;31495;42.740;22.908;2022-08-04T03:28:03;93340.31;;;14.46;69.64
45793;BME280;31495;42.740;22.908;2022-08-04T03:39:00;93342.13;;;14.45;69.49
45793;BME280;31495;42.740;22.908;2022-08-04T03:40:21;93340.75;;;14.43;69.76
45793;BME280;31495;42.740;22.908;2022-08-04T03:44:32;93347.56;;;14.32;70.02
45793;BME280;31495;42.740;22.908;2022-08-04T03:45:50;93303.47;;;14.13;69.96
45793;BME280;31495;42.740;22.908;2022-08-04T03:48:52;93343.34;;;14.43;70.12
45793;BME280;31495;42.740;22.908;2022-08-04T03:53:55;93335.69;;;14.48;69.96
45793;BME280;31495;42.740;22.908;2022-08-04T04:02:22;93347.09;;;14.59;70.21
45793;BME280;31495;42.740;22.908;2022-08-04T04:05:57;93351.50;;;14.70;69.55
45793;BME280;31495;42.740;22.908;2022-08-04T04:09:56;93337.47;;;14.59;69.95
45793;BME280;31495;42.740;22.908;2022-08-04T04:11:45;93318.66;;;14.57;69.69
45793;BME280;31495;42.740;22.908;2022-08-04T04:14:20;93357.03;;;14.85;69.55
45793;BME280;31495;42.740;22.908;2022-08-04T04:18:07;93359.63;;;14.97;69.44
45793;BME280;31495;42.740;22.908;2022-08-04T04:19:22;93358.13;;;15.01;69.94
45793;BME280;31495;42.740;22.908;2022-08-04T04:20:56;93359.47;;;15.04;70.14
45793;BME280;31495;42.740;22.908;2022-08-04T04:32:07;93352.44;;;15.62;68.46
45793;BME280;31495;42.740;22.908;2022-08-04T04:34:42;93346.13;;;15.75;68.31
45793;BME280;31495;42.740;22.908;2022-08-04T04:36:05;93311.56;;;15.51;67.69
45793;BME280;31495;42.740;22.908;2022-08-04T04:44:55;93356.97;;;15.84;69.21
45793;BME280;31495;42.740;22.908;2022-08-04T04:48:52;93326.47;;;15.84;69.05
45793;BME280;31495;42.740;22.908;2022-08-04T04:50:03;93360.25;;;16.08;69.28
45793;BME280;31495;42.740;22.908;2022-08-04T04:51:13;93358.25;;;16.15;68.92
45793;BME280;31495;42.740;22.908;2022-08-04T04:52:20;93362.28;;;16.23;68.78
45793;BME280;31495;42.740;22.908;2022-08-04T04:53:50;93359.81;;;16.33;68.14
45793;BME280;31495;42.740;22.908;2022-08-04T04:55:12;93331.66;;;16.18;67.65
45793;BME280;31495;42.740;22.908;2022-08-04T04:56:22;93337.06;;;16.28;67.68
45793;BME280;31495;42.740;22.908;2022-08-04T04:57:28;93344.72;;;16.35;67.85
45793;BME280;31495;42.740;22.908;2022-08-04T04:58:32;93346.34;;;16.41;67.74
45793;BME280;31495;42.740;22.908;2022-08-04T04:59:35;93334.81;;;16.37;67.89
45793;BME280;31495;42.740;22.908;2022-08-04T05:01:55;93353.75;;;16.66;68.00
45793;BME280;31495;42.740;22.908;2022-08-04T05:07:44;93359.31;;;16.92;67.75
45793;BME280;31495;42.740;22.908;2022-08-04T05:11:46;93355.06;;;17.08;67.55
45793;BME280;31495;42.740;22.908;2022-08-04T05:13:15;93355.69;;;17.15;67.12
45793;BME280;31495;42.740;22.908;2022-08-04T05:14:26;93333.31;;;17.02;67.28
45793;BME280;31495;42.740;22.908;2022-08-04T05:15:33;93347.50;;;17.12;67.69
45793;BME280;31495;42.740;22.908;2022-08-04T05:16:38;93314.16;;;16.97;67.78
45793;BME280;31495;42.740;22.908;2022-08-04T05:17:41;93348.66;;;17.21;67.78
45793;BME280;31495;42.740;22.908;2022-08-04T05:18:44;93371.34;;;17.37;67.66
45793;BME280;31495;42.740;22.908;2022-08-04T05:20:22;93368.81;;;17.48;67.96
45793;BME280;31495;42.740;22.908;2022-08-04T05:22:06;93297.84;;;17.12;67.65
45793;BME280;31495;42.740;22.908;2022-08-04T05:24:14;93367.41;;;17.62;67.43
45793;BME280;31495;42.740;22.908;2022-08-04T05:25:26;93371.88;;;17.67;67.48
45793;BME280;31495;42.740;22.908;2022-08-04T05:26:36;93349.06;;;17.62;67.18
45793;BME280;31495;42.740;22.908;2022-08-04T05:27:43;93362.34;;;17.82;67.06
45793;BME280;31495;42.740;22.908;2022-08-04T05:28:51;93367.66;;;17.88;66.98
45793;BME280;31495;42.740;22.908;2022-08-04T05:29:54;93348.72;;;17.80;66.31
45793;BME280;31495;42.740;22.908;2022-08-04T05:31:00;93359.06;;;17.92;66.35
45793;BME280;31495;42.740;22.908;2022-08-04T05:32:04;93351.41;;;17.86;65.98
45793;BME280;31495;42.740;22.908;2022-08-04T05:33:08;93343.88;;;17.89;65.83
45793;BME280;31495;42.740;22.908;2022-08-04T05:34:12;93320.44;;;17.77;65.74
45793;BME280;31495;42.740;22.908;2022-08-04T05:35:23;93362.34;;;18.10;65.97
45793;BME280;31495;42.740;22.908;2022-08-04T05:36:32;93370.22;;;18.15;65.49
45793;BME280;31495;42.740;22.908;2022-08-04T05:37:34;93354.75;;;18.13;65.34
45793;BME280;31495;42.740;22.908;2022-08-04T05:38:38;93362.47;;;18.25;65.18
45793;BME280;31495;42.740;22.908;2022-08-04T05:39:45;93359.59;;;18.27;65.02
45793;BME280;31495;42.740;22.908;2022-08-04T05:40:47;93357.50;;;18.29;64.59
45793;BME280;31495;42.740;22.908;2022-08-04T05:41:49;93362.28;;;18.37;65.05
45793;BME280;31495;42.740;22.908;2022-08-04T05:42:48;93364.16;;;18.42;64.34
45793;BME280;31495;42.740;22.908;2022-08-04T05:43:49;93338.59;;;18.22;64.41
45793;BME280;31495;42.740;22.908;2022-08-04T05:44:49;93364.41;;;18.45;64.54
45793;BME280;31495;42.740;22.908;2022-08-04T05:45:51;93368.34;;;18.48;64.31
45793;BME280;31495;42.740;22.908;2022-08-04T05:46:54;93353.34;;;18.38;64.41
45793;BME280;31495;42.740;22.908;2022-08-04T05:47:54;93346.53;;;18.32;64.73
45793;BME280;31495;42.740;22.908;2022-08-04T05:48:54;93352.31;;;18.39;64.54
45793;BME280;31495;42.740;22.908;2022-08-04T05:49:55;93345.22;;;18.34;64.77
45793;BME280;31495;42.740;22.908;2022-08-04T05:50:55;93364.16;;;18.42;64.45
45793;BME280;31495;42.740;22.908;2022-08-04T05:52:00;93369.66;;;18.45;65.04
45793;BME280;31495;42.740;22.908;2022-08-04T05:53:01;93370.72;;;18.49;65.18
45793;BME280;31495;42.740;22.908;2022-08-04T05:54:01;93345.22;;;18.34;65.11
45793;BME280;31495;42.740;22.908;2022-08-04T05:55:03;93366.53;;;18.48;65.12
45793;BME280;31495;42.740;22.908;2022-08-04T05:56:03;93366.06;;;18.57;65.04
45793;BME280;31495;42.740;22.908;2022-08-04T05:57:06;93368.97;;;18.60;65.04
45793;BME280;31495;42.740;22.908;2022-08-04T05:58:06;93363.72;;;18.60;65.86
45793;BME280;31495;42.740;22.908;2022-08-04T05:59:07;93356.84;;;18.49;65.13
45793;BME280;31495;42.740;22.908;2022-08-04T06:00:10;93348.13;;;18.38;65.05
45793;BME280;31495;42.740;22.908;2022-08-04T06:01:11;93348.16;;;18.43;65.27
45793;BME280;31495;42.740;22.908;2022-08-04T06:02:14;93366.06;;;18.57;65.48
45793;BME280;31495;42.740;22.908;2022-08-04T06:03:18;93351.34;;;18.50;65.32
45793;BME280;31495;42.740;22.908;2022-08-04T06:04:20;93370.81;;;18.60;65.00
45793;BME280;31495;42.740;22.908;2022-08-04T06:05:21;93375.84;;;18.71;64.10
45793;BME280;31495;42.740;22.908;2022-08-04T06:06:21;93374.50;;;18.69;64.36
45793;BME280;31495;42.740;22.908;2022-08-04T06:07:21;93369.53;;;18.72;64.42
45793;BME280;31495;42.740;22.908;2022-08-04T06:08:20;93360.38;;;18.70;64.34
45793;BME280;31495;42.740;22.908;2022-08-04T06:09:20;93355.94;;;18.76;64.47
45793;BME280;31495;42.740;22.908;2022-08-04T06:10:19;93366.25;;;18.87;64.33
45793;BME280;31495;42.740;22.908;2022-08-04T06:11:20;93353.34;;;18.81;64.36
45793;BME280;31495;42.740;22.908;2022-08-04T06:12:22;93364.72;;;18.97;64.74
45793;BME280;31495;42.740;22.908;2022-08-04T06:13:28;93353.47;;;19.01;64.25
45793;BME280;31495;42.740;22.908;2022-08-04T06:14:35;93350.81;;;18.96;64.01
45793;BME280;31495;42.740;22.908;2022-08-04T06:15:38;93369.22;;;19.12;63.93
45793;BME280;31495;42.740;22.908;2022-08-04T06:16:40;93343.78;;;19.07;63.75
45793;BME280;31495;42.740;22.908;2022-08-04T06:17:46;93362.72;;;19.24;62.88
45793;BME280;31495;42.740;22.908;2022-08-04T06:18:48;93352.75;;;19.21;62.44
45793;BME280;31495;42.740;22.908;2022-08-04T06:19:49;93361.97;;;19.44;62.12
45793;BME280;31495;42.740;22.908;2022-08-04T06:20:51;93342.84;;;19.39;61.87
45793;BME280;31495;42.740;22.908;2022-08-04T06:21:54;93365.69;;;19.64;61.13
45793;BME280;31495;42.740;22.908;2022-08-04T06:22:57;93346.56;;;19.63;60.96
45793;BME280;31495;42.740;22.908;2022-08-04T06:23:57;93325.03;;;19.56;60.41
45793;BME280;31495;42.740;22.908;2022-08-04T06:25:00;93359.44;;;19.86;61.41
45793;BME280;31495;42.740;22.908;2022-08-04T06:26:01;93357.91;;;19.95;62.08
45793;BME280;31495;42.740;22.908;2022-08-04T06:27:03;93369.47;;;20.04;60.28
45793;BME280;31495;42.740;22.908;2022-08-04T06:28:05;93340.03;;;19.92;60.14
45793;BME280;31495;42.740;22.908;2022-08-04T06:29:07;93349.50;;;20.03;60.37
45793;BME280;31495;42.740;22.908;2022-08-04T06:30:16;93361.56;;;20.25;60.38
45793;BME280;31495;42.740;22.908;2022-08-04T06:31:18;93359.47;;;20.16;59.60
45793;BME280;31495;42.740;22.908;2022-08-04T06:32:41;93298.53;;;19.58;59.48
45793;BME280;31495;42.740;22.908;2022-08-04T06:33:54;93358.97;;;20.09;59.94
45793;BME280;31495;42.740;22.908;2022-08-04T06:34:56;93359.47;;;20.22;59.57
45793;BME280;31495;42.740;22.908;2022-08-04T06:35:58;93337.16;;;20.19;59.96
45793;BME280;31495;42.740;22.908;2022-08-04T06:36:58;93342.91;;;20.36;59.02
45793;BME280;31495;42.740;22.908;2022-08-04T06:37:58;93356.56;;;20.49;59.45
45793;BME280;31495;42.740;22.908;2022-08-04T06:38:59;93342.91;;;20.47;59.22
45793;BME280;31495;42.740;22.908;2022-08-04T06:40:01;93356.53;;;20.59;59.05
45793;BME280;31495;42.740;22.908;2022-08-04T06:41:02;93357.59;;;20.58;58.99
45793;BME280;31495;42.740;22.908;2022-08-04T06:42:07;93341.56;;;20.44;60.39
45793;BME280;31495;42.740;22.908;2022-08-04T06:43:07;93359.69;;;20.51;57.99
45793;BME280;31495;42.740;22.908;2022-08-04T06:44:08;93361.53;;;20.61;58.54
45793;BME280;31495;42.740;22.908;2022-08-04T06:45:09;93324.50;;;20.36;57.75
45793;BME280;31495;42.740;22.908;2022-08-04T06:46:09;93356.25;;;20.61;57.73
45793;BME280;31495;42.740;22.908;2022-08-04T06:47:10;93332.66;;;20.45;57.57
45793;BME280;31495;42.740;22.908;2022-08-04T06:48:13;93364.69;;;20.73;57.79
45793;BME280;31495;42.740;22.908;2022-08-04T06:49:13;93339.22;;;20.53;57.15
45793;BME280;31495;42.740;22.908;2022-08-04T06:50:15;93364.16;;;20.76;56.88
45793;BME280;31495;42.740;22.908;2022-08-04T06:51:15;93357.28;;;20.85;56.54
45793;BME280;31495;42.740;22.908;2022-08-04T06:52:17;93355.41;;;20.96;57.48
45793;BME280;31495;42.740;22.908;2022-08-04T06:53:17;93358.56;;;20.98;57.17
45793;BME280;31495;42.740;22.908;2022-08-04T06:54:17;93342.78;;;20.98;57.31
45793;BME280;31495;42.740;22.908;2022-08-04T06:55:16;93360.59;;;21.11;58.03
45793;BME280;31495;42.740;22.908;2022-08-04T06:56:16;93345.13;;;21.05;57.67
45793;BME280;31495;42.740;22.908;2022-08-04T06:57:19;93354.53;;;21.21;57.04
45793;BME280;31495;42.740;22.908;2022-08-04T06:58:20;93357.41;;;21.30;56.70
45793;BME280;31495;42.740;22.908;2022-08-04T06:59:21;93348.97;;;21.28;56.97
45793;BME280;31495;42.740;22.908;2022-08-04T07:00:21;93331.13;;;21.15;56.85
45793;BME280;31495;42.740;22.908;2022-08-04T07:01:23;93317.97;;;21.15;55.19
45793;BME280;31495;42.740;22.908;2022-08-04T07:02:26;93364.16;;;21.52;55.52
45793;BME280;31495;42.740;22.908;2022-08-04T07:03:27;93366.22;;;21.60;56.19
45793;BME280;31495;42.740;22.908;2022-08-04T07:04:27;93353.25;;;21.69;57.13
45793;BME280;31495;42.740;22.908;2022-08-04T07:05:27;93336.22;;;21.56;55.52
45793;BME280;31495;42.740;22.908;2022-08-04T07:06:27;93348.78;;;21.64;55.33
45793;BME280;31495;42.740;22.908;2022-08-04T07:07:26;93354.56;;;21.66;55.71
45793;BME280;31495;42.740;22.908;2022-08-04T07:08:26;93338.03;;;21.60;55.36
45793;BME280;31495;42.740;22.908;2022-08-04T07:09:27;93352.63;;;21.82;56.04
45793;BME280;31495;42.740;22.908;2022-08-04T07:10:27;93353.41;;;21.88;55.51
45793;BME280;31495;42.740;22.908;2022-08-04T07:11:27;93329.81;;;21.67;54.82
45793;BME280;31495;42.740;22.908;2022-08-04T07:12:28;93337.13;;;21.75;54.92
45793;BME280;31495;42.740;22.908;2022-08-04T07:13:30;93359.88;;;22.00;53.54
45793;BME280;31495;42.740;22.908;2022-08-04T07:14:30;93350.72;;;21.93;52.90
45793;BME280;31495;42.740;22.908;2022-08-04T07:15:34;93341.78;;;21.89;53.29
45793;BME280;31495;42.740;22.908;2022-08-04T07:16:35;93345.78;;;21.86;54.72
45793;BME280;31495;42.740;22.908;2022-08-04T07:17:36;93338.97;;;21.80;53.61
45793;BME280;31495;42.740;22.908;2022-08-04T07:18:36;93352.31;;;21.89;53.93
45793;BME280;31495;42.740;22.908;2022-08-04T07:19:37;93357.53;;;21.99;52.59
45793;BME280;31495;42.740;22.908;2022-08-04T07:20:40;93343.09;;;21.91;52.66
45793;BME280;31495;42.740;22.908;2022-08-04T07:21:41;93340.19;;;21.93;52.82
45793;BME280;31495;42.740;22.908;2022-08-04T07:22:41;93361.69;;;22.05;52.74
45793;BME280;31495;42.740;22.908;2022-08-04T07:23:44;93344.63;;;21.97;53.74
45793;BME280;31495;42.740;22.908;2022-08-04T07:24:43;93357.44;;;22.09;53.90
45793;BME280;31495;42.740;22.908;2022-08-04T07:25:43;93354.28;;;22.12;53.37
45793;BME280;31495;42.740;22.908;2022-08-04T07:26:43;93337.41;;;22.08;52.62
45793;BME280;31495;42.740;22.908;2022-08-04T07:27:43;93350.22;;;22.25;53.02
45793;BME280;31495;42.740;22.908;2022-08-04T07:28:42;93350.50;;;22.24;52.63
45793;BME280;31495;42.740;22.908;2022-08-04T07:29:42;93351.09;;;22.45;52.44
45793;BME280;31495;42.740;22.908;2022-08-04T07:30:43;93321.97;;;22.31;52.45
45793;BME280;31495;42.740;22.908;2022-08-04T07:31:43;93349.50;;;22.49;51.89
45793;BME280;31495;42.740;22.908;2022-08-04T07:32:43;93352.31;;;22.57;52.06
45793;BME280;31495;42.740;22.908;2022-08-04T07:33:46;93293.25;;;22.29;51.29
45793;BME280;31495;42.740;22.908;2022-08-04T07:34:47;93349.28;;;22.69;52.18
45793;BME280;31495;42.740;22.908;2022-08-04T07:35:48;93356.88;;;22.76;51.52
45793;BME280;31495;42.740;22.908;2022-08-04T07:36:51;93343.69;;;22.76;51.21
45793;BME280;31495;42.740;22.908;2022-08-04T07:37:51;93337.06;;;22.79;51.32
45793;BME280;31495;42.740;22.908;2022-08-04T07:38:50;93345.13;;;22.87;51.45
45793;BME280;31495;42.740;22.908;2022-08-04T07:39:50;93350.25;;;23.03;51.16
45793;BME280;31495;42.740;22.908;2022-08-04T07:40:49;93293.84;;;22.74;51.51
45793;BME280;31495;42.740;22.908;2022-08-04T07:41:49;93343.13;;;23.03;50.10
45793;BME280;31495;42.740;22.908;2022-08-04T07:42:49;93349.59;;;23.16;50.72
45793;BME280;31495;42.740;22.908;2022-08-04T07:43:49;93336.25;;;23.07;51.19
45793;BME280;31495;42.740;22.908;2022-08-04T07:44:50;93343.91;;;23.04;51.25
45793;BME280;31495;42.740;22.908;2022-08-04T07:45:49;93346.16;;;22.91;50.99
45793;BME280;31495;42.740;22.908;2022-08-04T07:46:49;93343.38;;;23.02;51.40
45793;BME280;31495;42.740;22.908;2022-08-04T07:47:49;93326.00;;;23.01;51.06
45793;BME280;31495;42.740;22.908;2022-08-04T07:48:49;93333.59;;;23.07;50.98
45793;BME280;31495;42.740;22.908;2022-08-04T07:49:48;93345.84;;;23.22;50.57
45793;BME280;31495;42.740;22.908;2022-08-04T07:50:48;93347.38;;;23.23;50.21
45793;BME280;31495;42.740;22.908;2022-08-04T07:51:49;93336.53;;;23.25;50.65
45793;BME280;31495;42.740;22.908;2022-08-04T07:52:49;93312.72;;;23.11;50.60